Main page
METAR-TAF:

METAR-TAF

Airports :

Pryor Field Regional Airport

Decatur, Alabama, United States

latitude: 34-39-29N, longitude: 086-56-36W, elevation: 590 ft

Current weather observation

The report was made 1 hour and 1 minutes ago, at 19:53 UTC
Wind 13 mph from the North/Northwest
Temperature 57°F
Humidity 51%
Pressure 30.00 in. Hg
Visibility: 10 miles
Clear sky

METAR: KDCU 011953Z AUTO 33011KT 10SM CLR 14/04 A3000 RMK AO2 SLP160 T01440044 $

Time: 15:54 (20:54 UTC)


TAF: missing

Weather observations and forecasts of more than 4000 airports (METAR and TAF reports).

The available stations are represented by yellow and red dots on the map.

Hover mouse over dot to see the name of the station.

Then click to see weather observations and forecasts.

To change the map : click on the green buttons with a black cross to zoom in, on the green button with a dash to zoom out, or on the green arrows for adjacent maps.


METAR-TAF: